Ullin, Illinois
Current Conditions -  °F | °C
As of 7:35 PM on Friday 19 Dec 2014 (Local Time) from KCIR Reporting Station
Overcast Overcast  
Wind Chill: 35°   Ceiling: 9000
Heat Index: 40°   Visibility: 10mi
Dew Point: 32°   Wind: 7mph
Humidity: 74%   Direction: 40°NE
Pressure: 30.25"   Gusts: NA
Location:  37.28°N, 89.18°W
Report Text: KCIR 200135Z AUTO 04006KT 10SM BKN090 OVC110 04/00 A3025 RMK AO2 T00421001
Loading
Personal Weather Stations






























Interactive Weather Map New forecast layout! Learn more

10-Day Weather Forecast

Advertisements
Track Severe Weather on mobile